createdAt,value
2017-10-31T00:00:02.658Z,4.8
2017-10-31T00:05:02.642Z,4.9
2017-10-31T00:10:02.701Z,4.9
2017-10-31T00:15:03.084Z,4.9
2017-10-31T00:20:02.535Z,4.9
2017-10-31T00:25:02.527Z,4.9
2017-10-31T00:30:02.997Z,4.9
2017-10-31T00:35:02.967Z,5
2017-10-31T00:40:02.848Z,5
2017-10-31T00:45:04.931Z,5.1
2017-10-31T00:50:02.846Z,5
2017-10-31T00:55:02.882Z,5.1
2017-10-31T01:00:03.377Z,5.1
2017-10-31T01:05:02.452Z,5.1
2017-10-31T01:10:03.244Z,5.2
2017-10-31T01:15:02.948Z,5.2
2017-10-31T01:20:08.362Z,5.3
2017-10-31T01:25:02.364Z,5.3
2017-10-31T01:30:02.767Z,5.3
2017-10-31T01:35:02.867Z,5.4
2017-10-31T01:40:05.353Z,5.5
2017-10-31T01:45:03.345Z,5.5
2017-10-31T01:50:05.231Z,5.5
2017-10-31T01:55:05.353Z,5.5
2017-10-31T02:00:03.315Z,5.5
2017-10-31T02:05:02.429Z,5.6
2017-10-31T02:10:02.410Z,5.6
2017-10-31T02:15:02.943Z,5.6
2017-10-31T02:20:05.860Z,5.7
2017-10-31T02:25:02.419Z,5.7
2017-10-31T02:30:02.945Z,5.7
2017-10-31T02:35:02.939Z,5.7
2017-10-31T02:40:02.893Z,5.8
2017-10-31T02:45:02.422Z,5.8
2017-10-31T02:50:02.901Z,5.8
2017-10-31T02:55:02.894Z,5.8
2017-10-31T03:00:03.392Z,5.9
2017-10-31T03:05:02.475Z,5.9
2017-10-31T03:10:02.451Z,5.9
2017-10-31T03:15:05.504Z,6
2017-10-31T03:20:02.326Z,6
2017-10-31T03:25:02.482Z,6.1
2017-10-31T03:30:02.938Z,6.1
2017-10-31T03:35:02.986Z,6.1
2017-10-31T03:40:02.930Z,6.2
2017-10-31T03:45:02.578Z,6.2
2017-10-31T03:50:02.980Z,6.2
2017-10-31T03:55:08.141Z,6.3
2017-10-31T04:00:02.427Z,6.3
2017-10-31T04:05:05.090Z,6.3
2017-10-31T04:10:05.067Z,6.4
2017-10-31T04:15:03.068Z,6.3
2017-10-31T04:20:02.544Z,6.4
2017-10-31T04:25:02.708Z,6.3
2017-10-31T04:30:03.091Z,6.4
2017-10-31T04:35:03.224Z,6.4
2017-10-31T04:40:03.216Z,6.4
2017-10-31T04:45:02.721Z,6.5
2017-10-31T04:50:03.219Z,6.4
2017-10-31T04:55:03.353Z,6.4
2017-10-31T05:00:02.705Z,6.5
2017-10-31T05:05:02.892Z,6.5
2017-10-31T05:10:07.893Z,6.5
2017-10-31T05:15:02.362Z,6.5
2017-10-31T05:20:02.880Z,6.5
2017-10-31T05:25:02.918Z,6.6
2017-10-31T05:30:02.362Z,6.6
2017-10-31T05:35:05.027Z,6.6
2017-10-31T05:40:02.468Z,6.6
2017-10-31T05:45:03.003Z,6.6
2017-10-31T05:50:02.492Z,6.6
2017-10-31T05:55:02.557Z,6.7
2017-10-31T06:00:03.070Z,6.7
2017-10-31T06:05:03.173Z,6.7
2017-10-31T06:10:03.156Z,6.7
2017-10-31T06:15:02.719Z,6.6
2017-10-31T06:20:10.813Z,6.6
2017-10-31T06:25:03.397Z,6.7
2017-10-31T06:30:02.771Z,6.7
2017-10-31T06:35:02.930Z,6.7
2017-10-31T06:40:02.864Z,6.7
2017-10-31T06:45:02.572Z,6.8
2017-10-31T06:50:05.536Z,6.8
2017-10-31T06:55:05.630Z,6.8
2017-10-31T07:00:05.111Z,6.8
2017-10-31T07:05:02.754Z,6.8
2017-10-31T07:10:02.758Z,6.8
2017-10-31T07:15:03.340Z,6.8
2017-10-31T07:20:05.372Z,6.8
2017-10-31T07:25:02.969Z,6.9
2017-10-31T07:30:02.411Z,6.9
2017-10-31T07:35:02.598Z,6.9
2017-10-31T07:40:02.578Z,7
2017-10-31T07:45:03.275Z,7
2017-10-31T07:50:02.677Z,7
2017-10-31T07:55:02.852Z,7.1
2017-10-31T08:00:03.389Z,7.1
2017-10-31T08:05:02.507Z,7.1
2017-10-31T08:10:02.501Z,7.1
2017-10-31T08:15:08.306Z,7.3
2017-10-31T08:20:02.622Z,7.3
2017-10-31T08:25:02.830Z,7.4
2017-10-31T08:30:03.355Z,7.4
2017-10-31T08:35:02.541Z,7.5
2017-10-31T08:40:02.563Z,7.4
2017-10-31T08:45:03.281Z,7.5
2017-10-31T08:50:02.673Z,7.7
2017-10-31T08:55:02.886Z,7.8
2017-10-31T09:00:02.483Z,7.8
2017-10-31T09:05:05.175Z,7.9
2017-10-31T09:10:03.187Z,7.9
2017-10-31T09:15:02.358Z,8
2017-10-31T09:20:02.929Z,8.1
2017-10-31T09:25:03.129Z,8.1
2017-10-31T09:30:02.641Z,8.2
2017-10-31T09:35:02.869Z,8.3
2017-10-31T09:40:05.414Z,8.5
2017-10-31T09:45:02.607Z,8.5
2017-10-31T09:50:03.182Z,8.5
2017-10-31T09:55:04.929Z,8.5
2017-10-31T10:00:02.983Z,8.6
2017-10-31T10:05:05.699Z,8.6
2017-10-31T10:10:03.143Z,8.6
2017-10-31T10:15:02.958Z,8.5
2017-10-31T10:20:02.471Z,8.6
2017-10-31T10:25:02.692Z,8.5
2017-10-31T10:30:03.122Z,8.6
2017-10-31T10:35:02.473Z,8.6
2017-10-31T10:40:07.582Z,8.7
2017-10-31T10:45:03.273Z,8.7
2017-10-31T10:50:05.341Z,8.9
2017-10-31T10:55:03.087Z,8.8
2017-10-31T11:00:02.569Z,8.8
2017-10-31T11:05:02.884Z,8.8
2017-10-31T11:10:02.874Z,8.8
2017-10-31T11:15:02.715Z,8.9
2017-10-31T11:20:03.267Z,8.9
2017-10-31T11:25:02.510Z,8.9
2017-10-31T11:30:03.118Z,9
2017-10-31T11:35:02.431Z,9
2017-10-31T11:40:02.530Z,9
2017-10-31T11:45:03.263Z,9
2017-10-31T11:50:02.827Z,9
2017-10-31T11:55:03.101Z,9
2017-10-31T12:00:02.668Z,9.1
2017-10-31T12:05:02.947Z,9.1
2017-10-31T12:10:03.110Z,9.1
2017-10-31T12:15:02.897Z,9
2017-10-31T12:20:05.859Z,9
2017-10-31T12:25:02.982Z,9
2017-10-31T12:30:15.804Z,9.2
2017-10-31T12:35:02.557Z,9.2
2017-10-31T12:40:02.705Z,9.2
2017-10-31T12:45:02.306Z,9.3
2017-10-31T12:50:02.982Z,9.3
2017-10-31T12:55:03.235Z,9.2
2017-10-31T13:00:02.803Z,9.3
2017-10-31T13:05:03.160Z,9.3
2017-10-31T13:10:03.175Z,9.2
2017-10-31T13:15:02.996Z,9.1
2017-10-31T13:20:02.544Z,9.1
2017-10-31T13:25:02.814Z,9.1
2017-10-31T13:30:05.855Z,9.2
2017-10-31T13:35:02.565Z,9.2
2017-10-31T13:40:02.587Z,9.4
2017-10-31T13:45:04.918Z,9.4
2017-10-31T13:50:02.984Z,9.4
2017-10-31T13:55:05.758Z,9.3
2017-10-31T14:00:02.742Z,9.3
2017-10-31T14:05:03.155Z,9.2
2017-10-31T14:10:03.193Z,9.2
2017-10-31T14:15:03.019Z,9.1
2017-10-31T14:20:02.589Z,9
2017-10-31T14:25:02.854Z,9.1
2017-10-31T14:30:02.458Z,9.1
2017-10-31T14:35:02.793Z,9.1
2017-10-31T14:40:02.839Z,9.1
2017-10-31T14:45:02.606Z,8.9
2017-10-31T14:50:03.216Z,9
2017-10-31T14:55:02.495Z,9
2017-10-31T15:00:03.071Z,9.1
2017-10-31T15:05:05.880Z,9.1
2017-10-31T15:10:12.606Z,9
2017-10-31T15:15:03.304Z,9
2017-10-31T15:20:02.947Z,8.9
2017-10-31T15:25:03.066Z,8.9
2017-10-31T15:30:02.753Z,8.9
2017-10-31T15:35:05.674Z,8.8
2017-10-31T15:40:03.192Z,8.8
2017-10-31T15:45:03.072Z,8.8
2017-10-31T15:50:02.631Z,8.8
2017-10-31T15:55:08.102Z,8.7
2017-10-31T16:00:02.624Z,8.7
2017-10-31T16:05:02.952Z,8.7
2017-10-31T16:10:02.961Z,8.7
2017-10-31T16:15:02.926Z,8.7
2017-10-31T16:20:07.641Z,8.7
2017-10-31T16:25:02.808Z,8.7
2017-10-31T16:30:02.333Z,8.7
2017-10-31T16:35:02.718Z,8.7
2017-10-31T16:40:02.851Z,8.8
2017-10-31T16:45:02.732Z,8.7
2017-10-31T16:50:02.374Z,8.8
2017-10-31T16:55:02.794Z,8.8
2017-10-31T17:00:02.302Z,8.8
2017-10-31T17:05:02.664Z,8.8
2017-10-31T17:10:02.805Z,8.7
2017-10-31T17:15:02.656Z,8.7
2017-10-31T17:20:03.255Z,8.7
2017-10-31T17:25:02.513Z,8.7
2017-10-31T17:30:05.673Z,8.7
2017-10-31T17:35:02.505Z,8.7
2017-10-31T17:40:02.536Z,8.7
2017-10-31T17:45:02.363Z,8.7
2017-10-31T17:50:02.960Z,8.7
2017-10-31T17:55:03.225Z,8.7
2017-10-31T18:00:02.919Z,8.7
2017-10-31T18:05:05.718Z,8.7
2017-10-31T18:10:05.736Z,8.7
2017-10-31T18:15:02.946Z,8.7
2017-10-31T18:20:02.628Z,8.7
2017-10-31T18:25:05.490Z,8.7
2017-10-31T18:30:02.625Z,8.7
2017-10-31T18:35:02.865Z,8.7
2017-10-31T18:40:03.157Z,8.6
2017-10-31T18:45:02.966Z,8.5
2017-10-31T18:50:02.542Z,8.3
2017-10-31T18:55:05.384Z,8.1
2017-10-31T19:00:02.424Z,8.1
2017-10-31T19:05:02.802Z,8.1
2017-10-31T19:10:02.855Z,8
2017-10-31T19:15:02.667Z,7.9
2017-10-31T19:20:03.234Z,7.8
2017-10-31T19:25:02.500Z,7.8
2017-10-31T19:30:03.086Z,7.8
2017-10-31T19:35:02.447Z,7.8
2017-10-31T19:40:10.111Z,7.9
2017-10-31T19:45:05.747Z,7.9
2017-10-31T19:50:07.815Z,8
2017-10-31T19:55:03.086Z,8
2017-10-31T20:00:05.215Z,8.1
2017-10-31T20:05:02.927Z,8.1
2017-10-31T20:10:05.619Z,8.2
2017-10-31T20:15:02.867Z,8.2
2017-10-31T20:20:02.331Z,8.2
2017-10-31T20:25:02.700Z,8.2
2017-10-31T20:30:03.220Z,8.2
2017-10-31T20:35:02.541Z,8.2
2017-10-31T20:40:05.084Z,8.2
2017-10-31T20:45:02.363Z,8.2
2017-10-31T20:50:03.020Z,8.2
2017-10-31T20:55:02.536Z,8.2
2017-10-31T21:00:03.020Z,8.2
2017-10-31T21:05:03.268Z,8.2
2017-10-31T21:10:02.307Z,8.2
2017-10-31T21:15:03.241Z,8.2
2017-10-31T21:20:05.367Z,8.2
2017-10-31T21:25:05.654Z,8.3
2017-10-31T21:30:02.589Z,8.2
2017-10-31T21:35:03.002Z,8.2
2017-10-31T21:40:03.137Z,8.3
2017-10-31T21:45:02.960Z,8.3
2017-10-31T21:50:02.559Z,8.3
2017-10-31T21:55:02.814Z,8.3
2017-10-31T22:00:02.394Z,8.3
2017-10-31T22:05:02.710Z,8.4
2017-10-31T22:10:02.833Z,8.4
2017-10-31T22:15:05.138Z,8.4
2017-10-31T22:20:03.202Z,8.4
2017-10-31T22:25:02.443Z,8.4
2017-10-31T22:30:03.054Z,8.4
2017-10-31T22:35:03.310Z,8.4
2017-10-31T22:40:02.507Z,8.5
2017-10-31T22:45:03.304Z,8.5
2017-10-31T22:50:02.852Z,8.5
2017-10-31T22:55:03.134Z,8.5
2017-10-31T23:00:05.130Z,8.5
2017-10-31T23:05:02.946Z,8.5
2017-10-31T23:10:03.107Z,8.5
2017-10-31T23:15:02.788Z,8.6
2017-10-31T23:20:02.450Z,8.6
2017-10-31T23:25:02.699Z,8.6
2017-10-31T23:30:03.140Z,8.6
2017-10-31T23:35:02.500Z,8.7
2017-10-31T23:40:02.516Z,8.7
2017-10-31T23:45:05.863Z,8.7
2017-10-31T23:50:02.924Z,8.7
2017-10-31T23:55:03.215Z,8.7
